Portada
METAR-TAF:

METAR-TAF

Aeroports :

Tacna, Perú

latitud: 18-04S, longitud: 070-18W, altitud: 468 m

Observació

L'informe es va fer fa 35 minuts, a les 17:00 UTC
Vent 9 kt del Sud-Oest, variant entre Sud i Oest
Temperatura 25°C
Humitat 47%
Pressió 1012 hPa
Visibilitat 10 km o més
sense núvols per sota de 1500 mi sense presència de cumulonimbus.

METAR: SPTN 241700Z 23009KT 170V280 CAVOK 25/13 Q1012 RMK PP000

Hora: 12:35 (17:35 UTC)

Pronòstic

L'informe es va fer fa 20 minuts, a les 17:15 UTC
Pronòstic vàlid del 24 a les 18 UTC al 25 a les 18 UTC
Vent 10 kt del Sud-Oest
Visibilitat 10 km o més
sense núvols per sota de 1500 mi sense presència de cumulonimbus.
A partir de les 25 a les 0100 UTC
Vent 4 kt del Sud/Sud-Oest
Visibilitat 10 km o més
sense núvols per sota de 1500 mi sense presència de cumulonimbus.

TAF: SPTN 241715Z 2418/2518 22010KT CAVOK TX27/2419Z TN18/2510Z FM250100 20004KT CAVOK

Observacions i pronòstics meteorològics de més de 4000 aeroports (METAR i TAF).

Les estacions disponibles són els punts grocs i vermells al mapa.

Posi el ratolí al punt desitjat per veure el nom de l'estació.

Feu clic per veure les observacions i els pronòstics meteorològics.

Per canviar el mapa: feu clic els botons verds amb una creu de color negre per apropar; al botó verd amb un guió per allunyar la imatge; o en les fletxes verdes per a mapes adjacents.


METAR-TAF: